Portada
METAR-TAF:

METAR-TAF

Aeroports :

Antananarivo, Madagascar

latitud: 18-48S, longitud: 047-29E, altitud: 1279 m

Observació

L'informe es va fer fa 48 minuts, a les 17:00 UTC
Vent 8 kt del Sud-Est, variant entre Est/Sud-Est i Sud
Temperatura 14°C
Humitat 77%
Pressió 1026 hPa
Visibilitat 10 km o més
Escasses núvols a una alçada de 1700 ft
Cel ennuvolat a una alçada de 2000 ft

METAR: FMMI 231700Z 14008KT 110V170 9999 FEW017 BKN020 14/10 Q1026 NOSIG

Hora: 20:48 (17:48 UTC)

Pronòstic

L'informe es va fer fa 48 minuts, a les 17:00 UTC
Pronòstic vàlid del 23 a les 18 UTC al 24 a les 24 UTC
Vent 12 kt del Sud-Est
Visibilitat 10 km o més
Escasses núvols a una alçada de 1700 ft
Cel ennuvolat a una alçada de 2000 ft
Probabilitat 30% :
Temporalment
l' 24 a les 03 UTC al 24 a les 10 UTC
Visibilitat: 4000 m
Cel ennuvolat a una alçada de 1000 ft
plugim, pluja,

TAF: FMMI 231700Z 2318/2424 14012KT 9999 FEW017 BKN020 PROB30 TEMPO 2403/2410 4000 DZRA BKN010

Observacions i pronòstics meteorològics de més de 4000 aeroports (METAR i TAF).

Les estacions disponibles són els punts grocs i vermells al mapa.

Posi el ratolí al punt desitjat per veure el nom de l'estació.

Feu clic per veure les observacions i els pronòstics meteorològics.

Per canviar el mapa: feu clic els botons verds amb una creu de color negre per apropar; al botó verd amb un guió per allunyar la imatge; o en les fletxes verdes per a mapes adjacents.


METAR-TAF: